sensor_id;sensor_type;location;lat;lon;timestamp;P1;durP1;ratioP1;P2;durP2;ratioP2
68593;SDS011;55563;52.416;13.548;2024-02-15T00:00:53;3.42;;;1.73;;
68593;SDS011;55563;52.416;13.548;2024-02-15T00:02:53;2.28;;;1.75;;
68593;SDS011;55563;52.416;13.548;2024-02-15T00:04:54;3.25;;;2.45;;
68593;SDS011;55563;52.416;13.548;2024-02-15T00:06:56;4.25;;;1.88;;
68593;SDS011;55563;52.416;13.548;2024-02-15T00:08:56;3.88;;;2.05;;
68593;SDS011;55563;52.416;13.548;2024-02-15T00:10:57;3.17;;;1.92;;
68593;SDS011;55563;52.416;13.548;2024-02-15T00:12:58;3.25;;;2.17;;
68593;SDS011;55563;52.416;13.548;2024-02-15T00:14:58;3.45;;;1.90;;
68593;SDS011;55563;52.416;13.548;2024-02-15T00:16:59;2.28;;;1.70;;
68593;SDS011;55563;52.416;13.548;2024-02-15T00:19:00;2.45;;;1.80;;
68593;SDS011;55563;52.416;13.548;2024-02-15T00:23:02;2.10;;;1.60;;
68593;SDS011;55563;52.416;13.548;2024-02-15T00:25:03;2.13;;;1.52;;
68593;SDS011;55563;52.416;13.548;2024-02-15T00:27:06;3.50;;;1.83;;
68593;SDS011;55563;52.416;13.548;2024-02-15T00:29:07;3.05;;;1.98;;
68593;SDS011;55563;52.416;13.548;2024-02-15T00:31:08;2.63;;;1.88;;
68593;SDS011;55563;52.416;13.548;2024-02-15T00:33:08;2.53;;;1.88;;
68593;SDS011;55563;52.416;13.548;2024-02-15T00:35:09;2.65;;;1.85;;
68593;SDS011;55563;52.416;13.548;2024-02-15T00:37:09;4.22;;;2.42;;
68593;SDS011;55563;52.416;13.548;2024-02-15T00:39:11;3.45;;;2.50;;
68593;SDS011;55563;52.416;13.548;2024-02-15T00:41:12;3.42;;;2.00;;
68593;SDS011;55563;52.416;13.548;2024-02-15T00:43:12;2.92;;;2.15;;
68593;SDS011;55563;52.416;13.548;2024-02-15T00:45:13;2.90;;;1.80;;
68593;SDS011;55563;52.416;13.548;2024-02-15T00:47:14;2.25;;;1.65;;
68593;SDS011;55563;52.416;13.548;2024-02-15T00:49:15;3.92;;;2.08;;
68593;SDS011;55563;52.416;13.548;2024-02-15T00:51:15;3.08;;;1.90;;
68593;SDS011;55563;52.416;13.548;2024-02-15T00:53:16;3.60;;;1.77;;
68593;SDS011;55563;52.416;13.548;2024-02-15T00:55:17;4.65;;;2.03;;
68593;SDS011;55563;52.416;13.548;2024-02-15T00:57:18;2.58;;;1.80;;
68593;SDS011;55563;52.416;13.548;2024-02-15T00:59:18;3.08;;;2.20;;
68593;SDS011;55563;52.416;13.548;2024-02-15T01:01:19;3.38;;;3.00;;
68593;SDS011;55563;52.416;13.548;2024-02-15T01:03:20;3.28;;;2.00;;
68593;SDS011;55563;52.416;13.548;2024-02-15T01:05:21;3.42;;;2.05;;
68593;SDS011;55563;52.416;13.548;2024-02-15T01:07:22;3.35;;;2.00;;
68593;SDS011;55563;52.416;13.548;2024-02-15T01:09:26;3.17;;;2.22;;
68593;SDS011;55563;52.416;13.548;2024-02-15T01:11:27;3.72;;;2.75;;
68593;SDS011;55563;52.416;13.548;2024-02-15T01:13:28;2.67;;;1.88;;
68593;SDS011;55563;52.416;13.548;2024-02-15T01:15:29;3.00;;;2.00;;
68593;SDS011;55563;52.416;13.548;2024-02-15T01:17:30;3.35;;;2.00;;
68593;SDS011;55563;52.416;13.548;2024-02-15T01:19:30;2.78;;;1.85;;
68593;SDS011;55563;52.416;13.548;2024-02-15T01:21:31;3.20;;;1.92;;
68593;SDS011;55563;52.416;13.548;2024-02-15T01:23:33;3.97;;;2.15;;
68593;SDS011;55563;52.416;13.548;2024-02-15T01:25:36;3.13;;;2.05;;
68593;SDS011;55563;52.416;13.548;2024-02-15T01:27:38;3.42;;;2.10;;
68593;SDS011;55563;52.416;13.548;2024-02-15T01:29:39;3.42;;;2.10;;
68593;SDS011;55563;52.416;13.548;2024-02-15T01:31:39;3.08;;;2.03;;
68593;SDS011;55563;52.416;13.548;2024-02-15T01:33:40;3.33;;;1.92;;
68593;SDS011;55563;52.416;13.548;2024-02-15T01:35:40;5.38;;;2.10;;
68593;SDS011;55563;52.416;13.548;2024-02-15T01:37:41;3.15;;;2.03;;
68593;SDS011;55563;52.416;13.548;2024-02-15T01:39:42;4.25;;;2.10;;
68593;SDS011;55563;52.416;13.548;2024-02-15T01:41:46;4.47;;;2.33;;
68593;SDS011;55563;52.416;13.548;2024-02-15T01:43:48;3.47;;;2.25;;
68593;SDS011;55563;52.416;13.548;2024-02-15T01:45:50;4.18;;;2.40;;
68593;SDS011;55563;52.416;13.548;2024-02-15T01:47:51;2.53;;;2.00;;
68593;SDS011;55563;52.416;13.548;2024-02-15T01:49:53;2.58;;;2.00;;
68593;SDS011;55563;52.416;13.548;2024-02-15T01:51:54;3.72;;;2.20;;
68593;SDS011;55563;52.416;13.548;2024-02-15T01:53:57;4.05;;;2.30;;
68593;SDS011;55563;52.416;13.548;2024-02-15T01:55:58;3.65;;;2.40;;
68593;SDS011;55563;52.416;13.548;2024-02-15T01:58:00;3.88;;;2.47;;
68593;SDS011;55563;52.416;13.548;2024-02-15T02:00:01;3.47;;;2.22;;
68593;SDS011;55563;52.416;13.548;2024-02-15T02:02:21;5.03;;;2.70;;
68593;SDS011;55563;52.416;13.548;2024-02-15T02:04:25;4.15;;;2.40;;
68593;SDS011;55563;52.416;13.548;2024-02-15T02:06:26;3.67;;;2.20;;
68593;SDS011;55563;52.416;13.548;2024-02-15T02:08:27;5.20;;;3.00;;
68593;SDS011;55563;52.416;13.548;2024-02-15T02:10:27;3.22;;;2.05;;
68593;SDS011;55563;52.416;13.548;2024-02-15T02:12:30;4.28;;;2.45;;
68593;SDS011;55563;52.416;13.548;2024-02-15T02:14:31;4.10;;;3.08;;
68593;SDS011;55563;52.416;13.548;2024-02-15T02:16:32;3.90;;;2.30;;
68593;SDS011;55563;52.416;13.548;2024-02-15T02:18:32;4.38;;;3.10;;
68593;SDS011;55563;52.416;13.548;2024-02-15T02:20:33;3.70;;;2.60;;
68593;SDS011;55563;52.416;13.548;2024-02-15T02:22:35;3.58;;;2.25;;
68593;SDS011;55563;52.416;13.548;2024-02-15T02:24:38;4.40;;;2.60;;
68593;SDS011;55563;52.416;13.548;2024-02-15T02:26:45;5.72;;;2.75;;
68593;SDS011;55563;52.416;13.548;2024-02-15T02:28:46;4.15;;;3.22;;
68593;SDS011;55563;52.416;13.548;2024-02-15T02:30:47;4.30;;;2.65;;
68593;SDS011;55563;52.416;13.548;2024-02-15T02:32:48;4.28;;;2.97;;
68593;SDS011;55563;52.416;13.548;2024-02-15T02:34:49;3.15;;;2.10;;
68593;SDS011;55563;52.416;13.548;2024-02-15T02:36:49;3.97;;;2.45;;
68593;SDS011;55563;52.416;13.548;2024-02-15T02:38:50;4.45;;;2.83;;
68593;SDS011;55563;52.416;13.548;2024-02-15T02:40:51;5.05;;;2.47;;
68593;SDS011;55563;52.416;13.548;2024-02-15T02:42:53;4.18;;;2.65;;
68593;SDS011;55563;52.416;13.548;2024-02-15T02:44:56;3.75;;;2.65;;
68593;SDS011;55563;52.416;13.548;2024-02-15T02:46:57;4.70;;;2.75;;
68593;SDS011;55563;52.416;13.548;2024-02-15T02:48:57;4.95;;;3.08;;
68593;SDS011;55563;52.416;13.548;2024-02-15T02:50:58;4.68;;;2.50;;
68593;SDS011;55563;52.416;13.548;2024-02-15T02:52:59;4.22;;;2.75;;
68593;SDS011;55563;52.416;13.548;2024-02-15T02:55:00;3.83;;;2.58;;
68593;SDS011;55563;52.416;13.548;2024-02-15T02:59:02;4.20;;;2.53;;
68593;SDS011;55563;52.416;13.548;2024-02-15T03:01:03;4.32;;;2.40;;
68593;SDS011;55563;52.416;13.548;2024-02-15T03:03:05;4.65;;;2.80;;
68593;SDS011;55563;52.416;13.548;2024-02-15T03:05:06;4.75;;;2.80;;
68593;SDS011;55563;52.416;13.548;2024-02-15T03:07:08;4.32;;;3.17;;
68593;SDS011;55563;52.416;13.548;2024-02-15T03:09:09;4.65;;;2.92;;
68593;SDS011;55563;52.416;13.548;2024-02-15T03:11:11;4.28;;;2.47;;
68593;SDS011;55563;52.416;13.548;2024-02-15T03:13:12;4.60;;;2.70;;
68593;SDS011;55563;52.416;13.548;2024-02-15T03:15:13;4.43;;;2.67;;
68593;SDS011;55563;52.416;13.548;2024-02-15T03:17:14;4.07;;;2.53;;
68593;SDS011;55563;52.416;13.548;2024-02-15T03:19:14;4.93;;;3.50;;
68593;SDS011;55563;52.416;13.548;2024-02-15T03:21:15;4.03;;;2.58;;
68593;SDS011;55563;52.416;13.548;2024-02-15T03:23:15;4.47;;;2.85;;
68593;SDS011;55563;52.416;13.548;2024-02-15T03:25:16;4.53;;;2.75;;
68593;SDS011;55563;52.416;13.548;2024-02-15T03:27:17;5.57;;;2.53;;
68593;SDS011;55563;52.416;13.548;2024-02-15T03:29:18;4.45;;;2.67;;
68593;SDS011;55563;52.416;13.548;2024-02-15T03:31:20;4.50;;;2.60;;
68593;SDS011;55563;52.416;13.548;2024-02-15T03:33:21;4.15;;;2.90;;
68593;SDS011;55563;52.416;13.548;2024-02-15T03:35:27;4.80;;;2.85;;
68593;SDS011;55563;52.416;13.548;2024-02-15T03:37:31;4.45;;;2.80;;
68593;SDS011;55563;52.416;13.548;2024-02-15T03:39:33;4.32;;;2.85;;
68593;SDS011;55563;52.416;13.548;2024-02-15T03:41:34;5.53;;;3.47;;
68593;SDS011;55563;52.416;13.548;2024-02-15T03:43:35;5.78;;;3.13;;
68593;SDS011;55563;52.416;13.548;2024-02-15T03:45:35;4.57;;;2.75;;
68593;SDS011;55563;52.416;13.548;2024-02-15T03:47:36;5.55;;;2.80;;
68593;SDS011;55563;52.416;13.548;2024-02-15T03:49:37;4.32;;;2.67;;
68593;SDS011;55563;52.416;13.548;2024-02-15T03:51:37;4.15;;;2.72;;
68593;SDS011;55563;52.416;13.548;2024-02-15T03:53:38;4.93;;;2.75;;
68593;SDS011;55563;52.416;13.548;2024-02-15T03:55:39;4.22;;;2.60;;
68593;SDS011;55563;52.416;13.548;2024-02-15T03:57:40;4.68;;;3.13;;
68593;SDS011;55563;52.416;13.548;2024-02-15T03:59:43;3.90;;;2.42;;
68593;SDS011;55563;52.416;13.548;2024-02-15T04:01:46;4.45;;;3.25;;
68593;SDS011;55563;52.416;13.548;2024-02-15T04:03:47;4.57;;;2.65;;
68593;SDS011;55563;52.416;13.548;2024-02-15T04:05:48;5.05;;;2.38;;
68593;SDS011;55563;52.416;13.548;2024-02-15T04:07:48;4.47;;;2.75;;
68593;SDS011;55563;52.416;13.548;2024-02-15T04:09:49;4.35;;;2.60;;
68593;SDS011;55563;52.416;13.548;2024-02-15T04:11:50;4.43;;;2.33;;
68593;SDS011;55563;52.416;13.548;2024-02-15T04:13:53;5.43;;;2.80;;
68593;SDS011;55563;52.416;13.548;2024-02-15T04:15:53;4.40;;;2.63;;
68593;SDS011;55563;52.416;13.548;2024-02-15T04:17:54;4.32;;;2.45;;
68593;SDS011;55563;52.416;13.548;2024-02-15T04:19:56;5.93;;;2.78;;
68593;SDS011;55563;52.416;13.548;2024-02-15T04:21:56;4.63;;;2.28;;
68593;SDS011;55563;52.416;13.548;2024-02-15T04:23:57;4.28;;;2.75;;
68593;SDS011;55563;52.416;13.548;2024-02-15T04:25:58;4.10;;;2.55;;
68593;SDS011;55563;52.416;13.548;2024-02-15T04:27:59;5.18;;;2.97;;
68593;SDS011;55563;52.416;13.548;2024-02-15T04:30:04;4.72;;;2.75;;
68593;SDS011;55563;52.416;13.548;2024-02-15T04:32:07;5.10;;;2.83;;
68593;SDS011;55563;52.416;13.548;2024-02-15T04:34:09;5.07;;;3.10;;
68593;SDS011;55563;52.416;13.548;2024-02-15T04:36:11;5.72;;;3.33;;
68593;SDS011;55563;52.416;13.548;2024-02-15T04:38:12;6.13;;;3.08;;
68593;SDS011;55563;52.416;13.548;2024-02-15T04:40:13;6.25;;;3.30;;
68593;SDS011;55563;52.416;13.548;2024-02-15T04:42:14;7.28;;;4.30;;
68593;SDS011;55563;52.416;13.548;2024-02-15T04:44:16;6.78;;;3.80;;
68593;SDS011;55563;52.416;13.548;2024-02-15T04:46:17;5.40;;;3.05;;
68593;SDS011;55563;52.416;13.548;2024-02-15T04:48:18;5.53;;;3.13;;
68593;SDS011;55563;52.416;13.548;2024-02-15T04:50:19;5.93;;;3.45;;
68593;SDS011;55563;52.416;13.548;2024-02-15T04:52:21;6.22;;;3.70;;
68593;SDS011;55563;52.416;13.548;2024-02-15T04:54:23;6.20;;;3.58;;
68593;SDS011;55563;52.416;13.548;2024-02-15T04:56:24;6.95;;;3.90;;
68593;SDS011;55563;52.416;13.548;2024-02-15T04:58:25;7.30;;;4.38;;
68593;SDS011;55563;52.416;13.548;2024-02-15T05:00:25;9.23;;;4.65;;
68593;SDS011;55563;52.416;13.548;2024-02-15T05:02:26;6.47;;;3.67;;
68593;SDS011;55563;52.416;13.548;2024-02-15T05:04:26;6.32;;;3.47;;
68593;SDS011;55563;52.416;13.548;2024-02-15T05:06:27;5.88;;;3.70;;
68593;SDS011;55563;52.416;13.548;2024-02-15T05:08:29;6.55;;;3.75;;
68593;SDS011;55563;52.416;13.548;2024-02-15T05:10:32;5.82;;;3.33;;
68593;SDS011;55563;52.416;13.548;2024-02-15T05:12:32;5.78;;;3.42;;
68593;SDS011;55563;52.416;13.548;2024-02-15T05:14:34;6.28;;;3.80;;
68593;SDS011;55563;52.416;13.548;2024-02-15T05:16:36;6.97;;;3.20;;
68593;SDS011;55563;52.416;13.548;2024-02-15T05:18:42;6.82;;;3.60;;
68593;SDS011;55563;52.416;13.548;2024-02-15T05:20:43;6.68;;;3.47;;
68593;SDS011;55563;52.416;13.548;2024-02-15T05:22:43;5.57;;;3.42;;
68593;SDS011;55563;52.416;13.548;2024-02-15T05:24:46;5.80;;;3.30;;
68593;SDS011;55563;52.416;13.548;2024-02-15T05:26:46;4.97;;;2.63;;
68593;SDS011;55563;52.416;13.548;2024-02-15T05:28:47;6.88;;;3.75;;
68593;SDS011;55563;52.416;13.548;2024-02-15T05:30:48;5.10;;;3.45;;
68593;SDS011;55563;52.416;13.548;2024-02-15T05:32:48;5.20;;;3.13;;
68593;SDS011;55563;52.416;13.548;2024-02-15T05:34:50;5.25;;;3.03;;
68593;SDS011;55563;52.416;13.548;2024-02-15T05:36:50;5.38;;;3.08;;
68593;SDS011;55563;52.416;13.548;2024-02-15T05:38:53;7.07;;;3.45;;
68593;SDS011;55563;52.416;13.548;2024-02-15T05:40:54;5.75;;;2.90;;
68593;SDS011;55563;52.416;13.548;2024-02-15T05:42:55;6.18;;;3.17;;
68593;SDS011;55563;52.416;13.548;2024-02-15T05:45:14;5.72;;;3.47;;
68593;SDS011;55563;52.416;13.548;2024-02-15T05:47:32;6.43;;;4.32;;
68593;SDS011;55563;52.416;13.548;2024-02-15T05:49:33;6.05;;;3.70;;
68593;SDS011;55563;52.416;13.548;2024-02-15T05:51:34;9.15;;;4.97;;
68593;SDS011;55563;52.416;13.548;2024-02-15T05:53:35;8.35;;;4.07;;
68593;SDS011;55563;52.416;13.548;2024-02-15T05:55:36;5.63;;;3.13;;
68593;SDS011;55563;52.416;13.548;2024-02-15T05:57:38;5.28;;;2.97;;
68593;SDS011;55563;52.416;13.548;2024-02-15T05:59:38;5.97;;;3.55;;
68593;SDS011;55563;52.416;13.548;2024-02-15T06:01:40;6.25;;;3.35;;
68593;SDS011;55563;52.416;13.548;2024-02-15T06:03:42;6.43;;;3.40;;
68593;SDS011;55563;52.416;13.548;2024-02-15T06:05:44;8.18;;;4.22;;
68593;SDS011;55563;52.416;13.548;2024-02-15T06:07:45;9.07;;;5.78;;
68593;SDS011;55563;52.416;13.548;2024-02-15T06:09:46;8.10;;;4.35;;
68593;SDS011;55563;52.416;13.548;2024-02-15T06:11:46;7.38;;;5.07;;
68593;SDS011;55563;52.416;13.548;2024-02-15T06:13:47;7.20;;;3.60;;
68593;SDS011;55563;52.416;13.548;2024-02-15T06:15:48;5.97;;;3.42;;
68593;SDS011;55563;52.416;13.548;2024-02-15T06:17:52;5.55;;;3.42;;
68593;SDS011;55563;52.416;13.548;2024-02-15T06:19:53;5.53;;;3.17;;
68593;SDS011;55563;52.416;13.548;2024-02-15T06:21:54;5.60;;;3.15;;
68593;SDS011;55563;52.416;13.548;2024-02-15T06:23:55;6.38;;;3.63;;
68593;SDS011;55563;52.416;13.548;2024-02-15T06:25:56;5.72;;;3.28;;
68593;SDS011;55563;52.416;13.548;2024-02-15T06:27:58;7.47;;;3.45;;
68593;SDS011;55563;52.416;13.548;2024-02-15T06:30:02;5.93;;;3.63;;
68593;SDS011;55563;52.416;13.548;2024-02-15T06:32:23;5.65;;;3.30;;
68593;SDS011;55563;52.416;13.548;2024-02-15T06:34:44;5.80;;;3.10;;
68593;SDS011;55563;52.416;13.548;2024-02-15T06:37:04;6.75;;;4.32;;
68593;SDS011;55563;52.416;13.548;2024-02-15T06:39:25;6.82;;;3.90;;
68593;SDS011;55563;52.416;13.548;2024-02-15T06:41:45;5.60;;;3.83;;
68593;SDS011;55563;52.416;13.548;2024-02-15T06:43:46;7.28;;;4.65;;
68593;SDS011;55563;52.416;13.548;2024-02-15T06:45:47;6.13;;;3.53;;
68593;SDS011;55563;52.416;13.548;2024-02-15T06:47:51;5.63;;;3.65;;
68593;SDS011;55563;52.416;13.548;2024-02-15T06:49:52;6.30;;;3.72;;
68593;SDS011;55563;52.416;13.548;2024-02-15T06:51:54;5.72;;;3.53;;
68593;SDS011;55563;52.416;13.548;2024-02-15T06:53:54;7.70;;;4.97;;
68593;SDS011;55563;52.416;13.548;2024-02-15T06:57:56;5.25;;;3.05;;
68593;SDS011;55563;52.416;13.548;2024-02-15T06:59:57;5.45;;;3.30;;
68593;SDS011;55563;52.416;13.548;2024-02-15T07:01:58;6.85;;;3.67;;
68593;SDS011;55563;52.416;13.548;2024-02-15T07:03:59;6.75;;;3.70;;
68593;SDS011;55563;52.416;13.548;2024-02-15T07:06:00;5.63;;;3.60;;
68593;SDS011;55563;52.416;13.548;2024-02-15T07:08:01;5.45;;;3.35;;
68593;SDS011;55563;52.416;13.548;2024-02-15T07:10:02;5.78;;;3.50;;
68593;SDS011;55563;52.416;13.548;2024-02-15T07:12:03;5.28;;;2.97;;
68593;SDS011;55563;52.416;13.548;2024-02-15T07:14:04;5.13;;;3.28;;
68593;SDS011;55563;52.416;13.548;2024-02-15T07:16:07;5.25;;;3.05;;
68593;SDS011;55563;52.416;13.548;2024-02-15T07:18:08;5.00;;;3.22;;
68593;SDS011;55563;52.416;13.548;2024-02-15T07:20:10;5.47;;;3.13;;
68593;SDS011;55563;52.416;13.548;2024-02-15T07:22:14;4.57;;;3.05;;
68593;SDS011;55563;52.416;13.548;2024-02-15T07:24:16;5.50;;;3.05;;
68593;SDS011;55563;52.416;13.548;2024-02-15T07:26:17;4.22;;;2.42;;
68593;SDS011;55563;52.416;13.548;2024-02-15T07:28:20;4.25;;;2.63;;
68593;SDS011;55563;52.416;13.548;2024-02-15T07:30:21;5.57;;;2.75;;
68593;SDS011;55563;52.416;13.548;2024-02-15T07:32:22;8.07;;;3.72;;
68593;SDS011;55563;52.416;13.548;2024-02-15T07:34:23;6.65;;;3.75;;
68593;SDS011;55563;52.416;13.548;2024-02-15T07:36:24;5.95;;;3.38;;
68593;SDS011;55563;52.416;13.548;2024-02-15T07:38:26;5.32;;;3.00;;
68593;SDS011;55563;52.416;13.548;2024-02-15T07:42:29;4.10;;;2.25;;
68593;SDS011;55563;52.416;13.548;2024-02-15T07:44:30;4.25;;;2.40;;
68593;SDS011;55563;52.416;13.548;2024-02-15T07:46:32;5.00;;;3.00;;
68593;SDS011;55563;52.416;13.548;2024-02-15T07:48:33;4.38;;;2.50;;
68593;SDS011;55563;52.416;13.548;2024-02-15T07:50:33;4.75;;;2.60;;
68593;SDS011;55563;52.416;13.548;2024-02-15T07:52:37;7.30;;;3.30;;
68593;SDS011;55563;52.416;13.548;2024-02-15T07:54:38;5.53;;;3.00;;
68593;SDS011;55563;52.416;13.548;2024-02-15T07:56:39;5.03;;;3.20;;
68593;SDS011;55563;52.416;13.548;2024-02-15T07:58:40;5.40;;;3.15;;
68593;SDS011;55563;52.416;13.548;2024-02-15T08:00:42;5.00;;;2.58;;
68593;SDS011;55563;52.416;13.548;2024-02-15T08:02:43;4.80;;;2.70;;
68593;SDS011;55563;52.416;13.548;2024-02-15T08:04:44;4.38;;;2.33;;
68593;SDS011;55563;52.416;13.548;2024-02-15T08:06:45;4.45;;;2.92;;
68593;SDS011;55563;52.416;13.548;2024-02-15T08:08:46;4.75;;;2.70;;
68593;SDS011;55563;52.416;13.548;2024-02-15T08:12:51;5.25;;;2.85;;
68593;SDS011;55563;52.416;13.548;2024-02-15T08:14:53;5.15;;;2.63;;
68593;SDS011;55563;52.416;13.548;2024-02-15T08:16:53;5.28;;;3.10;;
68593;SDS011;55563;52.416;13.548;2024-02-15T08:18:55;5.97;;;3.00;;
68593;SDS011;55563;52.416;13.548;2024-02-15T08:20:57;6.47;;;3.63;;
68593;SDS011;55563;52.416;13.548;2024-02-15T08:22:57;5.43;;;2.92;;
68593;SDS011;55563;52.416;13.548;2024-02-15T08:24:59;5.78;;;3.03;;
68593;SDS011;55563;52.416;13.548;2024-02-15T08:27:00;4.72;;;2.60;;
68593;SDS011;55563;52.416;13.548;2024-02-15T08:29:01;4.55;;;2.63;;
68593;SDS011;55563;52.416;13.548;2024-02-15T08:31:03;5.55;;;3.35;;
68593;SDS011;55563;52.416;13.548;2024-02-15T08:33:04;4.65;;;2.50;;
68593;SDS011;55563;52.416;13.548;2024-02-15T08:35:06;5.03;;;2.75;;
68593;SDS011;55563;52.416;13.548;2024-02-15T08:37:08;4.60;;;2.70;;
68593;SDS011;55563;52.416;13.548;2024-02-15T08:39:09;3.55;;;2.40;;
68593;SDS011;55563;52.416;13.548;2024-02-15T08:41:12;5.10;;;2.40;;
68593;SDS011;55563;52.416;13.548;2024-02-15T08:43:13;4.32;;;2.33;;
68593;SDS011;55563;52.416;13.548;2024-02-15T08:45:15;5.00;;;2.67;;
68593;SDS011;55563;52.416;13.548;2024-02-15T08:47:16;4.55;;;2.55;;
68593;SDS011;55563;52.416;13.548;2024-02-15T08:49:16;5.57;;;2.80;;
68593;SDS011;55563;52.416;13.548;2024-02-15T08:51:17;4.28;;;2.40;;
68593;SDS011;55563;52.416;13.548;2024-02-15T08:53:18;4.88;;;3.00;;
68593;SDS011;55563;52.416;13.548;2024-02-15T08:55:19;3.47;;;2.03;;
68593;SDS011;55563;52.416;13.548;2024-02-15T08:57:24;3.95;;;2.75;;
68593;SDS011;55563;52.416;13.548;2024-02-15T08:59:25;5.38;;;2.50;;
68593;SDS011;55563;52.416;13.548;2024-02-15T09:01:27;4.18;;;2.38;;
68593;SDS011;55563;52.416;13.548;2024-02-15T09:03:28;4.53;;;2.58;;
68593;SDS011;55563;52.416;13.548;2024-02-15T09:05:28;4.97;;;2.60;;
68593;SDS011;55563;52.416;13.548;2024-02-15T09:07:29;4.93;;;2.78;;
68593;SDS011;55563;52.416;13.548;2024-02-15T09:11:31;3.75;;;2.33;;
68593;SDS011;55563;52.416;13.548;2024-02-15T09:13:32;4.63;;;2.83;;
68593;SDS011;55563;52.416;13.548;2024-02-15T09:15:34;4.72;;;2.85;;
68593;SDS011;55563;52.416;13.548;2024-02-15T09:17:35;4.50;;;3.03;;
68593;SDS011;55563;52.416;13.548;2024-02-15T09:19:39;4.40;;;2.30;;
68593;SDS011;55563;52.416;13.548;2024-02-15T09:21:39;4.15;;;2.25;;
68593;SDS011;55563;52.416;13.548;2024-02-15T09:23:40;5.55;;;2.88;;
68593;SDS011;55563;52.416;13.548;2024-02-15T09:25:40;4.47;;;2.22;;
68593;SDS011;55563;52.416;13.548;2024-02-15T09:27:44;4.05;;;2.13;;
68593;SDS011;55563;52.416;13.548;2024-02-15T09:29:46;3.40;;;2.00;;
68593;SDS011;55563;52.416;13.548;2024-02-15T09:31:47;4.15;;;2.22;;
68593;SDS011;55563;52.416;13.548;2024-02-15T09:35:49;5.38;;;2.50;;
68593;SDS011;55563;52.416;13.548;2024-02-15T09:37:49;4.50;;;2.13;;
68593;SDS011;55563;52.416;13.548;2024-02-15T09:39:50;3.42;;;2.17;;
68593;SDS011;55563;52.416;13.548;2024-02-15T09:41:51;4.68;;;2.50;;
68593;SDS011;55563;52.416;13.548;2024-02-15T09:43:58;4.28;;;2.42;;
68593;SDS011;55563;52.416;13.548;2024-02-15T09:45:59;4.45;;;2.38;;
68593;SDS011;55563;52.416;13.548;2024-02-15T09:47:59;5.28;;;2.30;;
68593;SDS011;55563;52.416;13.548;2024-02-15T09:50:06;4.05;;;2.25;;
68593;SDS011;55563;52.416;13.548;2024-02-15T09:52:08;3.80;;;2.05;;
68593;SDS011;55563;52.416;13.548;2024-02-15T09:54:11;3.78;;;2.50;;
68593;SDS011;55563;52.416;13.548;2024-02-15T09:56:20;4.25;;;2.80;;
68593;SDS011;55563;52.416;13.548;2024-02-15T09:58:21;3.60;;;1.98;;
68593;SDS011;55563;52.416;13.548;2024-02-15T10:00:23;2.83;;;1.80;;
68593;SDS011;55563;52.416;13.548;2024-02-15T10:02:24;3.53;;;2.22;;
68593;SDS011;55563;52.416;13.548;2024-02-15T10:04:25;4.68;;;2.70;;
68593;SDS011;55563;52.416;13.548;2024-02-15T10:06:26;3.22;;;2.08;;
68593;SDS011;55563;52.416;13.548;2024-02-15T10:08:27;3.58;;;2.30;;
68593;SDS011;55563;52.416;13.548;2024-02-15T10:10:29;4.05;;;2.30;;
68593;SDS011;55563;52.416;13.548;2024-02-15T10:12:36;5.57;;;3.40;;
68593;SDS011;55563;52.416;13.548;2024-02-15T10:14:38;4.63;;;2.75;;
68593;SDS011;55563;52.416;13.548;2024-02-15T10:16:50;4.97;;;2.60;;
68593;SDS011;55563;52.416;13.548;2024-02-15T10:18:50;4.32;;;2.72;;
68593;SDS011;55563;52.416;13.548;2024-02-15T10:20:57;3.65;;;2.20;;
68593;SDS011;55563;52.416;13.548;2024-02-15T10:25:10;6.03;;;3.97;;
68593;SDS011;55563;52.416;13.548;2024-02-15T10:27:12;5.25;;;3.40;;
68593;SDS011;55563;52.416;13.548;2024-02-15T10:29:13;4.88;;;3.08;;
68593;SDS011;55563;52.416;13.548;2024-02-15T10:31:16;3.97;;;2.75;;
68593;SDS011;55563;52.416;13.548;2024-02-15T10:33:25;5.40;;;2.97;;
68593;SDS011;55563;52.416;13.548;2024-02-15T10:35:31;4.55;;;2.92;;
68593;SDS011;55563;52.416;13.548;2024-02-15T10:37:35;6.50;;;3.83;;
68593;SDS011;55563;52.416;13.548;2024-02-15T10:39:35;6.60;;;3.50;;
68593;SDS011;55563;52.416;13.548;2024-02-15T10:41:37;5.22;;;3.45;;
68593;SDS011;55563;52.416;13.548;2024-02-15T10:43:40;4.85;;;3.13;;
68593;SDS011;55563;52.416;13.548;2024-02-15T10:45:43;4.50;;;2.92;;
68593;SDS011;55563;52.416;13.548;2024-02-15T10:47:45;4.30;;;3.33;;
68593;SDS011;55563;52.416;13.548;2024-02-15T10:49:47;4.70;;;2.80;;
68593;SDS011;55563;52.416;13.548;2024-02-15T10:51:50;3.63;;;2.58;;
68593;SDS011;55563;52.416;13.548;2024-02-15T10:53:56;3.25;;;2.30;;
68593;SDS011;55563;52.416;13.548;2024-02-15T10:58:16;4.15;;;2.90;;
68593;SDS011;55563;52.416;13.548;2024-02-15T11:00:21;5.35;;;1.85;;
68593;SDS011;55563;52.416;13.548;2024-02-15T11:02:26;4.40;;;3.10;;
68593;SDS011;55563;52.416;13.548;2024-02-15T11:04:30;3.53;;;2.45;;
68593;SDS011;55563;52.416;13.548;2024-02-15T11:06:35;3.47;;;2.08;;
68593;SDS011;55563;52.416;13.548;2024-02-15T11:08:41;3.55;;;1.98;;
68593;SDS011;55563;52.416;13.548;2024-02-15T11:10:45;4.03;;;2.20;;
68593;SDS011;55563;52.416;13.548;2024-02-15T11:12:46;4.03;;;2.70;;
68593;SDS011;55563;52.416;13.548;2024-02-15T11:14:47;3.50;;;2.00;;
68593;SDS011;55563;52.416;13.548;2024-02-15T11:16:49;6.10;;;3.53;;
68593;SDS011;55563;52.416;13.548;2024-02-15T11:18:50;4.15;;;3.25;;
68593;SDS011;55563;52.416;13.548;2024-02-15T11:20:52;5.53;;;2.35;;
68593;SDS011;55563;52.416;13.548;2024-02-15T11:22:56;3.75;;;2.20;;
68593;SDS011;55563;52.416;13.548;2024-02-15T11:24:57;3.33;;;2.85;;
68593;SDS011;55563;52.416;13.548;2024-02-15T11:26:58;4.22;;;2.60;;
68593;SDS011;55563;52.416;13.548;2024-02-15T11:29:02;4.05;;;2.72;;
68593;SDS011;55563;52.416;13.548;2024-02-15T11:31:03;5.53;;;2.58;;
68593;SDS011;55563;52.416;13.548;2024-02-15T11:33:23;5.07;;;2.80;;
68593;SDS011;55563;52.416;13.548;2024-02-15T11:35:28;4.40;;;2.03;;
68593;SDS011;55563;52.416;13.548;2024-02-15T11:37:48;4.78;;;3.25;;
68593;SDS011;55563;52.416;13.548;2024-02-15T11:40:00;4.28;;;2.40;;
68593;SDS011;55563;52.416;13.548;2024-02-15T11:42:32;3.45;;;2.05;;
68593;SDS011;55563;52.416;13.548;2024-02-15T11:44:29;3.08;;;1.90;;
68593;SDS011;55563;52.416;13.548;2024-02-15T11:46:30;3.97;;;2.17;;
68593;SDS011;55563;52.416;13.548;2024-02-15T11:48:35;2.65;;;1.92;;
68593;SDS011;55563;52.416;13.548;2024-02-15T11:50:39;3.00;;;1.90;;
68593;SDS011;55563;52.416;13.548;2024-02-15T11:52:41;2.35;;;1.73;;
68593;SDS011;55563;52.416;13.548;2024-02-15T11:54:42;3.25;;;1.90;;
68593;SDS011;55563;52.416;13.548;2024-02-15T11:59:09;3.10;;;2.13;;
68593;SDS011;55563;52.416;13.548;2024-02-15T12:01:18;3.42;;;2.05;;
68593;SDS011;55563;52.416;13.548;2024-02-15T12:03:39;2.65;;;2.20;;
68593;SDS011;55563;52.416;13.548;2024-02-15T12:06:00;2.45;;;2.10;;
68593;SDS011;55563;52.416;13.548;2024-02-15T12:08:21;3.47;;;2.17;;
68593;SDS011;55563;52.416;13.548;2024-02-15T12:10:41;2.40;;;1.80;;
68593;SDS011;55563;52.416;13.548;2024-02-15T12:13:02;3.20;;;2.33;;
68593;SDS011;55563;52.416;13.548;2024-02-15T12:15:22;3.55;;;2.55;;
68593;SDS011;55563;52.416;13.548;2024-02-15T12:17:43;2.40;;;1.98;;
68593;SDS011;55563;52.416;13.548;2024-02-15T12:20:04;2.55;;;1.98;;
68593;SDS011;55563;52.416;13.548;2024-02-15T12:22:11;3.03;;;2.35;;
68593;SDS011;55563;52.416;13.548;2024-02-15T12:24:12;2.60;;;2.10;;
68593;SDS011;55563;52.416;13.548;2024-02-15T12:28:14;2.45;;;2.10;;
68593;SDS011;55563;52.416;13.548;2024-02-15T12:30:16;2.47;;;2.10;;